Terminal Aerodrome Forecast
Issued by NWS

Home | Current Version | Previous Version | Text Only | Print | Product List | Glossary On
Versions: 1 2 3 4 5 6 7 8 9 10 11 12 13 14 15 16 17
472
FTUS44 KEPZ 300520
TAFTCS
TAF
KTCS 300520Z 3006/3106 32008KT P6SM SCT060 BKN100 BKN250
     FM301800 19008KT P6SM VCTS SCT060CB SCT100 SCT250
     FM310100 27010KT P6SM VCTS SCT060CB BKN100 BKN250=

USA.gov is the U.S. government's official web portal to all federal, state and local government web resources and services.